createdAt,value
2022-10-13T00:22:43.919Z,47.2
2022-10-13T00:52:45.678Z,46.2
2022-10-13T01:22:47.504Z,46.2
2022-10-13T01:52:49.483Z,47.2
2022-10-13T02:22:51.208Z,46.7
2022-10-13T02:54:53.192Z,44.5
2022-10-13T03:25:55.232Z,43.5
2022-10-13T03:56:57.127Z,44
2022-10-13T04:26:58.888Z,42.9
2022-10-13T04:57:00.728Z,41.9
2022-10-13T05:30:02.842Z,42.9
2022-10-13T06:00:04.649Z,43.5
2022-10-13T06:31:06.520Z,44.5
2022-10-13T07:01:08.367Z,45.6
2022-10-13T07:31:10.226Z,47.2
2022-10-13T08:01:12.055Z,49.9
2022-10-13T08:31:14.030Z,51
2022-10-13T09:03:15.930Z,52.1
2022-10-13T09:33:17.796Z,53.2
2022-10-13T10:04:19.708Z,55.8
2022-10-13T10:35:21.680Z,54.2
2022-10-13T11:05:23.576Z,55.3
2022-10-13T11:35:25.353Z,56.9
2022-10-13T12:05:27.170Z,58
2022-10-13T12:35:29.053Z,57.5
2022-10-13T13:05:31.017Z,58
2022-10-13T13:35:32.986Z,56.9
2022-10-13T14:06:34.925Z,54.2
2022-10-13T14:36:36.672Z,52.6
2022-10-13T15:06:38.529Z,52.1
2022-10-13T15:37:40.330Z,50.5
2022-10-13T16:07:42.165Z,49.9
2022-10-13T16:37:44.143Z,49.4
2022-10-13T17:07:46.001Z,48.9
2022-10-13T17:39:47.942Z,47.8
2022-10-13T18:10:49.872Z,48.9
2022-10-13T18:42:52.206Z,48.9
2022-10-13T19:12:53.864Z,48.3
2022-10-13T19:42:55.691Z,48.3
2022-10-13T20:14:57.670Z,47.2
2022-10-13T20:47:59.756Z,48.3
2022-10-13T21:18:01.642Z,47.2
2022-10-13T21:48:03.581Z,45.1
2022-10-13T22:18:05.407Z,46.2
2022-10-13T22:48:07.441Z,46.2
2022-10-13T23:21:09.371Z,47.2
2022-10-13T23:51:11.244Z,46.2
